Time;durP1;ratioP1;P1;durP2;ratioP2;P2;SDS_P1;SDS_P2;PMS_P1;PMS_P2;Temp;Humidity;BMP_temperature;BMP_pressure;BME280_temperature;BME280_humidity;BME280_pressure;Samples;Min_cycle;Max_cycle;Signal;HPM_P1;HPM_P2
2021/09/23 00:00:49;;;;;;;6.97;6.27;;;;;;;12.76;72.71;96438.50;5072096;28;20204;-87
2021/09/23 00:03:31;;;;;;;6.87;6.20;;;;;;;12.81;72.37;96435.44;5071830;28;20205;-87
2021/09/23 00:06:00;;;;;;;7.47;6.77;;;;;;;12.77;72.36;96423.81;5071709;28;20659;-87
2021/09/23 00:08:27;;;;;;;7.13;5.90;;;;;;;12.78;72.46;96418.47;5070939;28;20205;-87
2021/09/23 00:10:54;;;;;;;6.50;5.83;;;;;;;12.77;72.72;96413.47;5071992;28;20223;-87
2021/09/23 00:13:20;;;;;;;6.43;5.73;;;;;;;12.83;72.68;96409.41;5072013;28;20207;-87
2021/09/23 00:15:47;;;;;;;6.90;6.20;;;;;;;12.65;74.03;96412.25;5071640;28;20211;-88
2021/09/23 00:18:15;;;;;;;7.07;6.43;;;;;;;12.62;73.32;96405.63;5072214;28;20315;-87
2021/09/23 00:20:44;;;;;;;6.93;6.30;;;;;;;12.67;73.63;96399.97;5072178;28;20201;-87
2021/09/23 00:23:13;;;;;;;7.60;6.03;;;;;;;12.72;73.62;96406.22;5071988;28;20250;-87
2021/09/23 00:25:40;;;;;;;8.43;6.17;;;;;;;12.75;73.67;96399.91;5071483;28;20584;-87
2021/09/23 00:28:08;;;;;;;7.47;6.67;;;;;;;12.75;73.54;96399.91;5071380;28;20205;-87
2021/09/23 00:30:35;;;;;;;7.13;6.23;;;;;;;12.78;73.38;96402.97;5071853;28;20197;-87
2021/09/23 00:33:03;;;;;;;7.70;6.93;;;;;;;12.78;73.58;96391.81;5071238;28;20216;-86
2021/09/23 00:35:30;;;;;;;7.50;6.07;;;;;;;12.72;73.69;96384.75;5070968;28;20687;-87
2021/09/23 00:37:56;;;;;;;6.90;6.20;;;;;;;12.76;73.58;96386.81;5070992;28;20289;-88
2021/09/23 00:40:24;;;;;;;8.80;6.57;;;;;;;12.73;73.70;96378.59;5071352;28;20201;-87
2021/09/23 00:42:51;;;;;;;7.70;6.27;;;;;;;12.73;73.37;96378.59;5071083;28;20200;-87
2021/09/23 00:45:19;;;;;;;8.17;6.20;;;;;;;12.77;73.09;96375.50;5071078;28;20204;-87
2021/09/23 00:47:46;;;;;;;6.27;5.77;;;;;;;12.81;73.47;96376.00;5071134;28;20224;-88
2021/09/23 00:50:13;;;;;;;6.83;6.23;;;;;;;12.83;72.77;96371.47;5071123;28;20196;-87
2021/09/23 00:52:41;;;;;;;6.17;5.67;;;;;;;12.86;72.54;96378.06;5070957;28;20232;-87
2021/09/23 00:55:10;;;;;;;7.17;5.57;;;;;;;12.86;72.50;96378.88;5070606;28;20225;-89
2021/09/23 00:57:38;;;;;;;6.33;5.77;;;;;;;12.79;72.47;96381.31;5070341;28;20225;-87
2021/09/23 01:00:07;;;;;;;6.40;5.80;;;;;;;12.66;73.21;96381.09;5071335;28;20212;-87
2021/09/23 01:02:34;;;;;;;6.70;6.00;;;;;;;12.65;73.04;96374.31;5071297;28;20196;-87
2021/09/23 01:05:00;;;;;;;6.03;5.43;;;;;;;12.72;72.98;96377.78;5070976;28;20200;-87
2021/09/23 01:07:27;;;;;;;6.60;6.00;;;;;;;12.57;73.17;96382.09;5072261;28;20216;-86
2021/09/23 01:09:55;;;;;;;7.60;6.40;;;;;;;12.55;73.54;96383.22;5070430;28;20201;-87
2021/09/23 01:12:23;;;;;;;6.80;6.03;;;;;;;12.58;73.23;96385.47;5070769;28;20193;-87
2021/09/23 01:14:53;;;;;;;6.50;5.70;;;;;;;12.59;72.76;96379.34;5070270;28;20668;-89
2021/09/23 01:17:19;;;;;;;7.00;5.87;;;;;;;12.42;72.98;96376.84;5070270;28;20707;-87
2021/09/23 01:19:46;;;;;;;7.33;6.27;;;;;;;12.48;73.27;96369.38;5070255;28;20687;-88
2021/09/23 01:22:16;;;;;;;6.70;6.00;;;;;;;12.49;73.28;96369.22;5070347;28;20196;-87
2021/09/23 01:24:43;;;;;;;8.67;6.30;;;;;;;12.56;73.25;96374.50;5070086;28;20212;-87
2021/09/23 01:27:10;;;;;;;7.33;5.83;;;;;;;12.55;73.01;96370.31;5070443;28;20308;-87
2021/09/23 01:29:38;;;;;;;6.20;5.60;;;;;;;12.63;73.01;96367.69;5070487;28;20561;-86
2021/09/23 01:32:06;;;;;;;6.90;6.03;;;;;;;12.65;72.35;96363.97;5070429;28;20267;-87
2021/09/23 01:34:33;;;;;;;6.73;5.97;;;;;;;12.50;72.73;96370.84;5070035;28;20204;-88
2021/09/23 01:37:00;;;;;;;6.43;5.83;;;;;;;12.43;72.93;96370.69;5069888;28;20227;-86
2021/09/23 01:39:28;;;;;;;6.27;5.63;;;;;;;12.30;73.02;96372.22;5070413;28;20219;-89
2021/09/23 01:41:56;;;;;;;6.27;5.77;;;;;;;12.29;73.11;96380.94;5070575;28;20380;-87
2021/09/23 01:44:22;;;;;;;6.00;5.50;;;;;;;12.28;73.06;96374.16;5070307;28;20208;-88
2021/09/23 01:46:49;;;;;;;6.37;5.30;;;;;;;12.30;72.89;96372.22;5070312;28;20227;-87
2021/09/23 01:49:15;;;;;;;7.10;6.10;;;;;;;12.27;72.92;96378.50;5070346;28;20272;-86
2021/09/23 01:51:42;;;;;;;5.67;5.23;;;;;;;12.26;72.88;96371.75;5070089;28;20213;-87
2021/09/23 01:54:09;;;;;;;6.50;5.80;;;;;;;12.14;73.27;96375.63;5069906;28;20201;-87
2021/09/23 01:56:37;;;;;;;7.47;6.17;;;;;;;11.93;73.98;96376.19;5069869;28;20236;-86
2021/09/23 01:59:04;;;;;;;6.53;5.87;;;;;;;11.89;74.26;96374.13;5069161;28;20557;-87
2021/09/23 02:01:30;;;;;;;6.20;5.60;;;;;;;12.00;74.25;96384.88;5070387;28;20193;-87
2021/09/23 02:03:56;;;;;;;6.17;5.50;;;;;;;12.06;74.03;96365.34;5069761;28;20212;-89
2021/09/23 02:06:24;;;;;;;6.43;5.23;;;;;;;12.17;73.24;96364.97;5069875;28;20220;-87
2021/09/23 02:08:50;;;;;;;5.97;5.37;;;;;;;12.23;73.11;96356.56;5070049;28;20200;-87
2021/09/23 02:11:16;;;;;;;7.50;5.57;;;;;;;12.29;72.72;96366.25;5070042;28;20201;-87
2021/09/23 02:13:44;;;;;;;6.37;5.77;;;;;;;12.30;72.49;96351.56;5070251;28;20204;-88
2021/09/23 02:16:11;;;;;;;7.23;5.97;;;;;;;12.31;72.37;96350.59;5069473;28;20224;-87
2021/09/23 02:18:37;;;;;;;6.40;5.33;;;;;;;12.32;72.07;96347.00;5070176;28;20576;-87
2021/09/23 02:21:04;;;;;;;5.40;4.90;;;;;;;12.29;72.00;96348.16;5069812;28;20690;-88
2021/09/23 02:23:31;;;;;;;6.07;5.33;;;;;;;12.26;71.98;96343.34;5070266;28;20208;-87
2021/09/23 02:25:57;;;;;;;5.80;5.20;;;;;;;12.29;71.96;96347.38;5069518;28;20227;-89
2021/09/23 02:28:24;;;;;;;8.87;5.87;;;;;;;12.20;71.96;96340.59;5073520;28;20274;-87
2021/09/23 02:30:51;;;;;;;6.10;5.60;;;;;;;12.17;71.85;96339.16;5070054;28;20608;-87
2021/09/23 02:33:18;;;;;;;5.87;5.37;;;;;;;12.09;72.01;96334.03;5072891;28;20559;-87
2021/09/23 02:35:44;;;;;;;5.77;5.27;;;;;;;11.89;72.19;96331.06;5073255;28;20363;-88
2021/09/23 02:38:11;;;;;;;5.67;5.17;;;;;;;11.87;72.72;96327.03;5073906;28;20231;-87
2021/09/23 02:40:37;;;;;;;7.23;5.27;;;;;;;11.84;72.61;96323.00;5074019;28;20215;-88
2021/09/23 02:43:04;;;;;;;5.57;5.10;;;;;;;11.79;72.96;96317.53;5073508;28;20208;-86
2021/09/23 02:45:30;;;;;;;5.57;5.07;;;;;;;11.77;73.31;96319.47;5073261;28;20204;-87
2021/09/23 02:47:58;;;;;;;5.60;5.10;;;;;;;11.78;73.00;96313.31;5073247;28;20247;-86
2021/09/23 02:50:25;;;;;;;6.10;5.60;;;;;;;11.65;73.69;96318.97;5073376;28;20258;-87
2021/09/23 02:52:51;;;;;;;5.67;5.17;;;;;;;11.76;73.61;96310.09;5073478;28;20201;-87
2021/09/23 02:55:17;;;;;;;5.53;5.03;;;;;;;11.86;73.13;96308.16;5069502;28;20204;-86
2021/09/23 02:57:44;;;;;;;5.90;5.30;;;;;;;11.98;72.60;96311.16;5072642;28;20870;-87
2021/09/23 03:00:11;;;;;;;5.63;5.10;;;;;;;12.04;72.06;96306.16;5073006;28;20212;-87
2021/09/23 03:02:38;;;;;;;5.60;5.10;;;;;;;12.01;72.29;96309.06;5073443;28;20212;-87
2021/09/23 03:05:06;;;;;;;5.97;5.33;;;;;;;12.06;72.45;96309.38;5073306;28;20224;-87
2021/09/23 03:07:33;;;;;;;7.17;5.30;;;;;;;12.08;72.05;96298.88;5073772;28;20667;-86
2021/09/23 03:09:59;;;;;;;6.83;5.27;;;;;;;12.13;72.07;96301.75;5073479;28;20212;-86
2021/09/23 03:12:26;;;;;;;6.10;5.43;;;;;;;12.15;71.82;96299.81;5075898;28;20200;-87
2021/09/23 03:14:52;;;;;;;6.27;5.67;;;;;;;12.10;71.99;96297.75;5073333;28;20193;-88
2021/09/23 03:17:18;;;;;;;6.10;5.50;;;;;;;12.09;71.68;96293.56;5072661;28;20221;-87
2021/09/23 03:19:45;;;;;;;6.03;5.47;;;;;;;12.08;72.03;96291.13;5073096;28;20205;-87
2021/09/23 03:22:16;;;;;;;6.27;5.57;;;;;;;12.07;71.98;96284.38;5072697;28;20201;-87
2021/09/23 03:24:43;;;;;;;6.03;5.27;;;;;;;12.09;71.70;96285.81;5072484;28;20200;-88
2021/09/23 03:27:09;;;;;;;6.20;5.60;;;;;;;12.07;71.77;96281.78;5072455;28;20221;-87
2021/09/23 03:29:36;;;;;;;5.50;5.00;;;;;;;12.05;71.84;96279.38;5072518;28;20196;-86
2021/09/23 03:32:03;;;;;;;5.23;4.83;;;;;;;12.03;71.76;96273.56;5072892;28;20208;-86
2021/09/23 03:34:29;;;;;;;6.03;5.23;;;;;;;12.00;72.36;96273.09;5072537;28;20606;-87
2021/09/23 03:36:55;;;;;;;5.77;5.27;;;;;;;12.01;71.95;96272.94;5072323;28;20239;-88
2021/09/23 03:39:23;;;;;;;5.97;5.47;;;;;;;11.96;71.96;96274.41;5072566;28;20216;-87
2021/09/23 03:41:50;;;;;;;6.03;5.47;;;;;;;11.88;72.16;96271.88;5072634;28;20270;-88
2021/09/23 03:44:16;;;;;;;5.80;5.30;;;;;;;11.86;72.27;96266.06;5071003;28;20595;-87
2021/09/23 03:46:43;;;;;;;5.70;5.20;;;;;;;11.81;72.78;96266.56;5072837;28;20668;-89
2021/09/23 03:49:10;;;;;;;5.37;4.87;;;;;;;11.88;72.70;96264.94;5072873;28;20254;-86
2021/09/23 03:51:37;;;;;;;6.17;4.90;;;;;;;11.88;72.61;96261.53;5072559;28;20619;-86
2021/09/23 03:54:03;;;;;;;5.70;5.20;;;;;;;11.90;72.41;96260.41;5068771;28;20575;-88
2021/09/23 03:56:31;;;;;;;6.53;5.17;;;;;;;11.90;72.49;96257.03;5072125;28;20233;-87
2021/09/23 03:58:58;;;;;;;5.77;5.00;;;;;;;11.93;72.26;96261.84;5071618;28;20235;-87
2021/09/23 04:01:24;;;;;;;6.23;5.63;;;;;;;11.90;72.40;96257.03;5072315;28;20208;-87
2021/09/23 04:03:50;;;;;;;5.80;5.17;;;;;;;11.83;72.62;96256.06;5072364;28;20205;-86
2021/09/23 04:06:17;;;;;;;5.63;5.03;;;;;;;11.81;72.70;96247.69;5071684;28;20745;-87
2021/09/23 04:08:43;;;;;;;5.30;4.73;;;;;;;11.78;72.60;96235.94;5072077;28;20193;-87
2021/09/23 04:11:10;;;;;;;5.70;5.13;;;;;;;11.82;72.53;96236.41;5071839;28;20201;-87
2021/09/23 04:13:38;;;;;;;5.67;5.17;;;;;;;11.81;72.41;96245.09;5071993;28;20205;-87
2021/09/23 04:16:05;;;;;;;5.43;4.93;;;;;;;11.84;72.47;96237.03;5071914;28;20225;-87
2021/09/23 04:18:31;;;;;;;5.77;5.17;;;;;;;11.84;72.52;96239.63;5071889;28;20224;-86
2021/09/23 04:20:57;;;;;;;7.50;5.20;;;;;;;11.79;72.45;96236.72;5071887;28;20204;-87
2021/09/23 04:23:24;;;;;;;5.60;5.10;;;;;;;11.76;72.77;96232.72;5071913;28;20200;-87
2021/09/23 04:25:50;;;;;;;6.13;5.53;;;;;;;11.76;72.45;96227.53;5071448;28;20200;-87
2021/09/23 04:28:17;;;;;;;5.70;5.20;;;;;;;11.75;72.46;96225.91;5072098;28;20212;-87
2021/09/23 04:30:45;;;;;;;5.43;4.93;;;;;;;11.79;72.63;96216.91;5071872;28;20668;-86
2021/09/23 04:33:11;;;;;;;5.73;5.23;;;;;;;11.72;72.98;96208.22;5071752;28;20197;-87
2021/09/23 04:35:38;;;;;;;7.70;5.33;;;;;;;11.75;72.56;96205.25;5071286;28;20216;-87
2021/09/23 04:38:05;;;;;;;5.77;5.10;;;;;;;11.79;72.18;96201.41;5077376;28;20228;-87
2021/09/23 04:40:32;;;;;;;7.13;5.00;;;;;;;11.75;72.70;96203.50;5071133;28;20691;-87
2021/09/23 04:43:00;;;;;;;5.57;5.00;;;;;;;11.77;72.43;96198.19;5071469;28;20657;-86
2021/09/23 04:45:27;;;;;;;5.90;5.37;;;;;;;11.73;72.99;96197.72;5070936;28;20200;-86
2021/09/23 04:47:55;;;;;;;5.67;5.17;;;;;;;11.72;73.48;96193.53;5071384;28;20223;-87
2021/09/23 04:50:21;;;;;;;6.00;5.40;;;;;;;11.65;73.53;96187.44;5071346;28;20205;-87
2021/09/23 04:52:48;;;;;;;6.53;5.70;;;;;;;11.57;73.89;96189.22;5071120;28;20207;-87
2021/09/23 04:55:14;;;;;;;5.83;5.30;;;;;;;11.46;74.23;96187.03;5067280;28;20611;-86
2021/09/23 04:57:41;;;;;;;5.80;5.20;;;;;;;11.51;74.13;96182.97;5070285;28;20231;-86
2021/09/23 05:00:09;;;;;;;5.53;5.00;;;;;;;11.48;74.52;96177.34;5070994;28;20212;-87
2021/09/23 05:02:36;;;;;;;6.57;5.17;;;;;;;11.50;73.88;96175.41;5071728;28;20201;-87
2021/09/23 05:05:04;;;;;;;5.40;4.80;;;;;;;11.38;74.41;96172.38;5071816;28;20197;-86
2021/09/23 05:07:30;;;;;;;6.53;5.60;;;;;;;11.41;74.17;96172.84;5071398;28;20225;-86
2021/09/23 05:09:57;;;;;;;5.40;4.90;;;;;;;11.38;74.38;96169.78;5071936;28;20582;-87
2021/09/23 05:12:24;;;;;;;6.07;5.47;;;;;;;11.38;74.70;96167.22;5071796;28;20236;-87
2021/09/23 05:14:51;;;;;;;5.33;4.83;;;;;;;11.30;74.84;96168.06;5071524;28;20212;-86
2021/09/23 05:17:17;;;;;;;6.03;5.03;;;;;;;11.24;75.32;96163.56;5071269;28;20233;-87
2021/09/23 05:19:44;;;;;;;5.53;5.00;;;;;;;11.25;75.79;96159.22;5070898;28;20224;-87
2021/09/23 05:22:11;;;;;;;5.60;5.10;;;;;;;11.25;75.16;96154.06;5071325;28;20204;-86
2021/09/23 05:24:38;;;;;;;5.90;5.30;;;;;;;11.28;75.82;96146.81;5070865;28;20201;-86
2021/09/23 05:27:04;;;;;;;5.93;5.23;;;;;;;11.29;75.54;96145.03;5070794;28;20235;-86
2021/09/23 05:29:31;;;;;;;6.00;5.17;;;;;;;11.37;74.84;96152.72;5071243;28;20364;-87
2021/09/23 05:31:58;;;;;;;5.33;4.83;;;;;;;11.34;74.86;96147.91;5071119;28;20208;-86
2021/09/23 05:34:24;;;;;;;5.90;5.00;;;;;;;11.24;75.65;96149.88;5070954;28;20545;-86
2021/09/23 05:36:52;;;;;;;6.13;5.53;;;;;;;11.30;75.47;96149.22;5070812;28;20228;-86
2021/09/23 05:39:20;;;;;;;5.40;4.90;;;;;;;11.26;75.75;96147.94;5071244;28;20228;-86
2021/09/23 05:41:46;;;;;;;5.17;4.67;;;;;;;11.40;75.20;96145.47;5070923;28;20204;-86
2021/09/23 05:44:12;;;;;;;7.13;5.17;;;;;;;11.42;74.73;96147.88;5070651;28;20201;-87
2021/09/23 05:46:39;;;;;;;5.33;4.83;;;;;;;11.41;74.66;96149.66;5071243;28;20223;-86
2021/09/23 05:49:06;;;;;;;5.33;4.83;;;;;;;11.38;75.52;96149.97;5070929;28;20208;-89
2021/09/23 05:51:33;;;;;;;7.23;5.60;;;;;;;11.41;75.68;96154.81;5071333;28;20225;-87
2021/09/23 05:53:59;;;;;;;6.00;5.40;;;;;;;11.51;75.25;96140.91;5070663;28;20223;-87
2021/09/23 05:56:27;;;;;;;5.23;4.73;;;;;;;11.65;74.29;96142.78;5070696;28;20232;-86
2021/09/23 05:58:53;;;;;;;5.73;4.80;;;;;;;11.76;73.85;96134.66;5070509;28;20236;-87
2021/09/23 06:01:20;;;;;;;5.13;4.63;;;;;;;11.82;74.13;96133.19;5070847;28;20204;-87
2021/09/23 06:03:46;;;;;;;5.53;4.90;;;;;;;11.90;73.82;96125.41;5070655;28;20258;-87
2021/09/23 06:06:12;;;;;;;5.43;4.53;;;;;;;11.84;73.35;96121.72;5069655;28;20231;-87
2021/09/23 06:08:39;;;;;;;5.63;4.80;;;;;;;11.86;73.41;96126.72;5070541;28;20204;-86
2021/09/23 06:11:05;;;;;;;6.20;4.77;;;;;;;11.92;73.54;96126.84;5070757;28;20197;-86
2021/09/23 06:13:33;;;;;;;5.73;5.13;;;;;;;12.04;73.29;96128.06;5070243;28;20204;-87
2021/09/23 06:16:00;;;;;;;4.77;4.30;;;;;;;12.14;72.91;96122.66;5069897;28;20716;-87
2021/09/23 06:18:26;;;;;;;5.53;5.03;;;;;;;12.20;73.17;96124.56;5070162;28;20232;-89
2021/09/23 06:20:53;;;;;;;5.47;4.97;;;;;;;12.30;73.30;96114.81;5070402;28;20208;-87
2021/09/23 06:23:19;;;;;;;5.30;4.80;;;;;;;12.52;72.53;96118.31;5070306;28;20197;-87
2021/09/23 06:25:46;;;;;;;4.93;4.40;;;;;;;12.84;71.80;96121.56;5069943;28;20205;-86
2021/09/23 06:28:12;;;;;;;5.67;4.80;;;;;;;13.14;71.12;96118.00;5070366;28;20208;-90
2021/09/23 06:30:40;;;;;;;10.63;9.53;;;;;;;13.34;70.08;96121.69;5070189;28;20200;-87
2021/09/23 06:33:07;;;;;;;5.93;5.13;;;;;;;13.57;68.73;96118.16;5070404;28;20201;-89
2021/09/23 06:35:33;;;;;;;5.73;4.80;;;;;;;13.81;68.43;96128.19;5069928;28;20212;-86
2021/09/23 06:38:00;;;;;;;5.70;5.07;;;;;;;14.06;67.30;96123.47;5071424;28;20196;-87
2021/09/23 06:40:26;;;;;;;5.73;4.93;;;;;;;14.15;66.32;96128.34;5069645;28;20227;-87
2021/09/23 06:42:53;;;;;;;6.20;4.80;;;;;;;14.15;65.30;96132.72;5069845;28;20581;-88
2021/09/23 06:45:19;;;;;;;7.53;4.73;;;;;;;14.23;65.14;96132.63;5069344;28;20671;-87
2021/09/23 06:47:47;;;;;;;8.20;4.50;;;;;;;14.16;65.22;96127.34;5069707;28;20445;-87
2021/09/23 06:50:14;;;;;;;6.47;4.87;;;;;;;14.34;65.17;96131.28;5069730;28;20204;-86
2021/09/23 06:52:40;;;;;;;5.30;4.80;;;;;;;14.49;65.51;96117.31;5069538;28;20228;-87
2021/09/23 06:55:08;;;;;;;5.20;4.63;;;;;;;14.76;64.17;96107.94;5065595;28;20204;-87
2021/09/23 06:57:35;;;;;;;6.90;4.63;;;;;;;14.93;62.82;96118.81;5068910;28;20231;-88
2021/09/23 07:00:01;;;;;;;15.93;13.20;;;;;;;15.13;61.48;96117.13;5069214;28;20225;-87
2021/09/23 07:02:28;;;;;;;6.77;5.87;;;;;;;15.44;61.55;96114.06;5069565;28;20209;-88
2021/09/23 07:04:56;;;;;;;6.13;5.00;;;;;;;15.52;61.10;96116.53;5069534;28;20579;-87
2021/09/23 07:07:22;;;;;;;5.60;4.87;;;;;;;15.72;60.72;96110.63;5069348;28;20738;-88
2021/09/23 07:09:49;;;;;;;8.47;4.90;;;;;;;15.86;59.88;96110.47;5069650;28;20201;-87
2021/09/23 07:12:15;;;;;;;7.13;4.77;;;;;;;16.02;59.86;96111.09;5069580;28;20687;-89
2021/09/23 07:14:42;;;;;;;6.53;4.17;;;;;;;16.09;57.79;96098.91;5069299;28;20216;-87
2021/09/23 07:17:08;;;;;;;7.93;4.40;;;;;;;16.22;57.87;96102.31;5069401;28;20225;-87
2021/09/23 07:19:35;;;;;;;4.47;3.73;;;;;;;16.18;56.61;96106.31;5072862;28;20244;-88
2021/09/23 07:22:05;;;;;;;4.30;3.80;;;;;;;16.39;56.84;96107.94;5072915;28;20208;-87
2021/09/23 07:24:32;;;;;;;4.17;3.83;;;;;;;16.41;56.36;96098.13;5072543;28;20209;-87
2021/09/23 07:27:01;;;;;;;5.03;4.53;;;;;;;16.59;56.41;96097.53;5072435;28;20224;-87
2021/09/23 07:29:28;;;;;;;4.55;3.80;;;;;;;16.79;56.64;96090.53;5072828;28;20204;-87
2021/09/23 07:31:56;;;;;;;6.10;4.00;;;;;;;17.00;56.01;96086.91;5072650;28;20201;-87
2021/09/23 07:34:23;;;;;;;6.95;4.40;;;;;;;17.06;56.80;96080.09;5072496;28;20202;-87
2021/09/23 07:36:49;;;;;;;4.95;4.30;;;;;;;17.22;55.90;96075.22;5072368;28;20225;-87
2021/09/23 07:39:17;;;;;;;5.18;4.20;;;;;;;17.46;55.67;96076.34;5072683;28;20220;-87
2021/09/23 07:41:45;;;;;;;4.47;3.90;;;;;;;17.47;54.80;96074.53;5072390;28;20205;-87
2021/09/23 07:44:14;;;;;;;7.10;5.00;;;;;;;17.55;55.90;96067.28;5072034;28;20207;-87
2021/09/23 07:46:41;;;;;;;9.68;8.65;;;;;;;17.70;54.60;96067.03;5072431;28;20764;-87
2021/09/23 07:49:08;;;;;;;4.32;3.92;;;;;;;17.68;52.62;96063.06;5072823;28;20200;-87
2021/09/23 07:51:35;;;;;;;4.40;4.00;;;;;;;17.76;54.13;96065.38;5077582;28;20196;-89
2021/09/23 07:54:01;;;;;;;4.53;3.72;;;;;;;17.73;54.19;96068.41;5068182;28;20189;-87
2021/09/23 07:56:29;;;;;;;3.75;3.53;;;;;;;17.68;53.41;96069.06;5072476;28;20229;-87
2021/09/23 07:58:56;;;;;;;3.75;3.45;;;;;;;17.89;53.24;96065.34;5071652;28;20228;-88
2021/09/23 08:01:22;;;;;;;6.53;4.28;;;;;;;17.86;52.92;96063.94;5072233;28;20212;-86
2021/09/23 08:03:50;;;;;;;3.80;3.50;;;;;;;17.82;52.85;96057.53;5072025;28;20197;-88
2021/09/23 08:06:16;;;;;;;5.78;4.15;;;;;;;17.99;52.64;96050.03;5071715;28;20248;-88
2021/09/23 08:08:43;;;;;;;6.45;4.15;;;;;;;18.09;52.92;96052.94;5071662;28;20581;-87
2021/09/23 08:11:09;;;;;;;8.95;4.53;;;;;;;18.35;52.48;96059.78;5071838;28;20209;-87
2021/09/23 08:13:37;;;;;;;4.70;3.92;;;;;;;18.30;51.54;96059.59;5071638;28;20200;-86
2021/09/23 08:16:04;;;;;;;4.47;3.67;;;;;;;18.19;51.87;96060.31;5071557;28;20221;-87
2021/09/23 08:18:31;;;;;;;4.68;3.58;;;;;;;18.51;51.87;96064.44;5071528;28;20211;-88
2021/09/23 08:20:57;;;;;;;4.88;3.97;;;;;;;18.69;52.44;96060.31;5071520;28;20216;-87
2021/09/23 08:23:24;;;;;;;5.00;3.88;;;;;;;18.98;51.55;96057.00;5071539;28;20205;-87
2021/09/23 08:25:51;;;;;;;4.30;3.90;;;;;;;19.09;50.89;96052.88;5071597;28;20201;-87
2021/09/23 08:28:18;;;;;;;4.53;3.80;;;;;;;19.31;50.15;96056.63;5071642;28;20205;-87
2021/09/23 08:30:46;;;;;;;6.38;3.92;;;;;;;19.47;49.56;96053.41;5071087;28;20212;-87
2021/09/23 08:33:13;;;;;;;5.03;4.03;;;;;;;19.50;48.85;96058.22;5071715;28;20201;-86
2021/09/23 08:35:39;;;;;;;4.30;3.90;;;;;;;19.50;49.18;96068.69;5070956;28;20205;-87
2021/09/23 08:38:06;;;;;;;5.95;4.13;;;;;;;19.52;49.17;96065.84;5071529;28;20205;-86
2021/09/23 08:40:32;;;;;;;5.85;4.20;;;;;;;19.50;48.98;96057.44;5071158;28;20221;-87
2021/09/23 08:42:59;;;;;;;4.15;3.85;;;;;;;19.69;48.13;96053.75;5071148;28;20204;-87
2021/09/23 08:45:26;;;;;;;4.80;4.13;;;;;;;20.00;48.33;96056.16;5070778;28;20204;-87
2021/09/23 08:47:54;;;;;;;6.28;4.35;;;;;;;20.32;47.36;96059.28;5070831;28;20596;-88
2021/09/23 08:50:21;;;;;;;7.15;3.33;;;;;;;20.52;47.53;96053.75;5071066;28;20193;-87
2021/09/23 08:52:47;;;;;;;3.85;3.55;;;;;;;20.56;48.04;96059.31;5076403;28;20226;-87
2021/09/23 08:55:25;;;;;;;5.43;3.75;;;;;;;20.45;47.67;96055.66;5067123;28;20197;-87
2021/09/23 08:57:52;;;;;;;4.00;3.47;;;;;;;20.60;46.58;96066.47;5070312;28;20599;-86
2021/09/23 09:00:28;;;;;;;3.35;2.97;;;;;;;20.63;47.55;96063.41;5070969;28;20591;-87
2021/09/23 09:03:05;;;;;;;3.80;3.38;;;;;;;20.67;46.20;96071.59;5070777;28;20218;-88
2021/09/23 09:05:33;;;;;;;3.80;3.33;;;;;;;20.64;46.20;96059.75;5070302;28;20215;-87
2021/09/23 09:08:05;;;;;;;4.10;3.70;;;;;;;20.96;46.70;96054.97;5070592;28;20727;-89
2021/09/23 09:10:33;;;;;;;3.78;3.47;;;;;;;21.00;46.61;96044.81;5071581;28;20203;-88
2021/09/23 09:13:03;;;;;;;5.07;3.10;;;;;;;21.26;46.11;96051.41;5071119;28;20200;-87
2021/09/23 09:15:32;;;;;;;3.35;3.08;;;;;;;21.40;45.30;96044.06;5070692;28;20192;-88
2021/09/23 09:17:58;;;;;;;3.80;3.20;;;;;;;21.36;44.61;96039.28;5070542;28;20229;-87
2021/09/23 09:20:26;;;;;;;3.95;3.20;;;;;;;21.29;44.55;96041.28;5070432;28;20232;-87
2021/09/23 09:22:53;;;;;;;3.47;3.08;;;;;;;21.02;44.19;96032.28;5070364;28;20211;-87
2021/09/23 09:25:23;;;;;;;2.88;2.60;;;;;;;21.00;45.48;96031.72;5070041;28;20235;-87
2021/09/23 09:27:50;;;;;;;3.78;3.20;;;;;;;21.10;45.23;96031.16;5070143;28;20244;-87
2021/09/23 09:30:19;;;;;;;3.70;3.30;;;;;;;21.38;45.21;96025.97;5070641;28;20204;-88
2021/09/23 09:32:47;;;;;;;2.72;2.50;;;;;;;21.37;45.20;96032.22;5070549;28;20219;-87
2021/09/23 09:35:17;;;;;;;2.70;2.50;;;;;;;21.35;45.38;96048.22;5070248;28;20205;-87
2021/09/23 09:37:48;;;;;;;3.30;2.83;;;;;;;21.14;44.68;96033.09;5076590;28;20229;-87
2021/09/23 09:40:18;;;;;;;2.70;2.50;;;;;;;21.12;45.39;96029.91;5069709;28;20262;-88
2021/09/23 09:42:46;;;;;;;5.35;3.00;;;;;;;21.06;45.17;96027.41;5070103;28;20197;-89
2021/09/23 09:45:19;;;;;;;5.28;2.63;;;;;;;20.99;45.53;96023.06;5070015;28;20579;-87
2021/09/23 09:47:52;;;;;;;3.30;2.88;;;;;;;21.08;45.58;96020.91;5070238;28;20813;-87
2021/09/23 09:50:20;;;;;;;2.70;2.50;;;;;;;21.32;44.81;96026.91;5070413;28;20212;-87
2021/09/23 09:52:56;;;;;;;3.17;2.83;;;;;;;21.13;44.50;96015.78;5070267;28;20197;-87
2021/09/23 09:55:24;;;;;;;4.65;2.55;;;;;;;20.97;45.23;96019.13;5066590;28;20284;-90
2021/09/23 09:57:51;;;;;;;2.72;2.53;;;;;;;21.06;45.43;96019.53;5069695;28;20718;-87
2021/09/23 10:00:19;;;;;;;2.67;2.47;;;;;;;21.23;44.86;96010.75;5068438;28;20695;-88
2021/09/23 10:02:46;;;;;;;3.00;2.40;;;;;;;21.08;45.36;96015.69;5055117;28;20196;-87
2021/09/23 10:05:14;;;;;;;3.88;2.50;;;;;;;21.03;45.86;96007.72;5049439;28;20225;-87
2021/09/23 10:07:44;;;;;;;3.20;2.58;;;;;;;21.14;44.63;96001.66;5049531;28;20224;-87
2021/09/23 10:10:13;;;;;;;3.10;2.35;;;;;;;21.11;44.46;96006.56;5063967;28;20205;-87
2021/09/23 10:12:41;;;;;;;2.42;2.22;;;;;;;20.95;43.97;95998.41;5071091;28;20212;-89
2021/09/23 10:15:09;;;;;;;3.75;2.50;;;;;;;21.02;45.26;96004.28;5069253;28;20692;-88
2021/09/23 10:17:36;;;;;;;4.43;2.40;;;;;;;20.98;44.83;95995.31;5069468;28;20205;-87
2021/09/23 10:20:05;;;;;;;2.67;2.47;;;;;;;20.85;44.98;95997.38;5069772;28;20220;-88
2021/09/23 10:22:32;;;;;;;3.25;2.97;;;;;;;20.73;45.31;95989.56;5069848;28;20254;-87
2021/09/23 10:25:01;;;;;;;2.65;2.45;;;;;;;20.58;45.68;95981.41;5070724;28;20228;-87
2021/09/23 10:30:16;;;;;;;2.30;2.10;;;;;;;20.91;45.79;95980.78;5070947;28;20192;-86
2021/09/23 10:32:45;;;;;;;2.60;2.40;;;;;;;21.07;45.96;95977.41;5070256;28;20236;-87
2021/09/23 10:35:14;;;;;;;2.17;1.98;;;;;;;21.14;46.37;95985.16;5069509;28;20203;-87
2021/09/23 10:37:41;;;;;;;2.58;2.25;;;;;;;21.21;46.44;95981.38;5069503;28;20814;-87
2021/09/23 10:40:14;;;;;;;2.03;1.88;;;;;;;21.23;43.94;95981.94;5069592;28;20278;-89
2021/09/23 10:42:47;;;;;;;2.85;2.08;;;;;;;21.37;43.72;95983.25;5069441;28;20247;-87
2021/09/23 10:45:15;;;;;;;1.98;1.88;;;;;;;21.48;43.45;95976.38;5069068;28;20229;-86
2021/09/23 10:47:46;;;;;;;2.35;2.15;;;;;;;21.50;43.75;95971.72;5069370;28;20223;-88
2021/09/23 10:50:13;;;;;;;2.83;1.95;;;;;;;21.28;43.62;95968.97;5069482;28;20196;-88
2021/09/23 10:52:41;;;;;;;2.30;2.08;;;;;;;21.27;43.89;95967.38;5070075;28;20285;-87
2021/09/23 10:55:08;;;;;;;4.57;3.45;;;;;;;21.25;44.41;95968.63;5072894;28;20616;-88
2021/09/23 10:57:36;;;;;;;2.30;2.20;;;;;;;21.23;45.35;95968.84;5072186;28;20227;-86
2021/09/23 11:00:06;;;;;;;3.00;2.13;;;;;;;21.36;43.89;95973.00;5072988;28;20220;-89
2021/09/23 11:02:33;;;;;;;4.47;2.28;;;;;;;21.42;43.67;95966.84;5072914;28;20196;-87
2021/09/23 11:05:11;;;;;;;7.70;2.30;;;;;;;21.53;44.27;95966.00;5072699;28;20212;-87
2021/09/23 11:07:52;;;;;;;2.47;1.92;;;;;;;21.59;43.12;95957.19;5072965;28;20227;-87
2021/09/23 11:10:23;;;;;;;2.00;1.90;;;;;;;21.59;43.52;95956.38;5073381;28;20209;-87
2021/09/23 11:12:53;;;;;;;2.40;2.00;;;;;;;21.59;43.21;95948.53;5073210;28;20207;-88
2021/09/23 11:15:23;;;;;;;2.35;2.00;;;;;;;21.50;41.34;95948.13;5073235;28;20201;-87
2021/09/23 11:17:51;;;;;;;2.70;1.90;;;;;;;21.36;42.36;95947.59;5073073;28;20224;-88
2021/09/23 11:20:20;;;;;;;2.22;1.83;;;;;;;21.26;44.01;95947.44;5072617;28;20286;-87
2021/09/23 11:22:51;;;;;;;3.78;2.10;;;;;;;21.28;44.70;95944.59;5072750;28;20251;-88
2021/09/23 11:25:20;;;;;;;2.30;2.10;;;;;;;21.40;44.13;95942.69;5072528;28;20232;-87
2021/09/23 11:27:47;;;;;;;2.90;2.70;;;;;;;21.51;43.61;95931.38;5072465;28;20919;-87
2021/09/23 11:30:16;;;;;;;2.20;2.00;;;;;;;21.48;43.36;95931.84;5072742;28;20291;-87
2021/09/23 11:32:52;;;;;;;2.15;1.95;;;;;;;21.55;44.56;95926.47;5072595;28;20655;-88
2021/09/23 11:35:20;;;;;;;2.25;2.13;;;;;;;21.62;43.71;95925.25;5072516;28;20212;-87
2021/09/23 11:37:50;;;;;;;2.08;1.90;;;;;;;21.78;44.54;95931.53;5071957;28;20229;-89